createdAt,value
2022-08-25T00:00:54.270Z,23.85
2022-08-25T00:05:55.956Z,24.67
2022-08-25T00:11:03.204Z,23.25
2022-08-25T00:16:05.622Z,24.10
2022-08-25T00:21:07.848Z,25.00
2022-08-25T00:26:10.507Z,23.50
2022-08-25T00:31:20.242Z,23.10
2022-08-25T00:36:22.215Z,23.98
2022-08-25T00:41:25.275Z,23.80
2022-08-25T00:46:32.934Z,24.10
2022-08-25T00:51:43.106Z,24.17
2022-08-25T00:56:46.554Z,23.30
2022-08-25T01:01:49.487Z,22.83
2022-08-25T01:06:51.698Z,24.42
2022-08-25T01:11:53.384Z,24.73
2022-08-25T01:16:55.495Z,25.95
2022-08-25T01:21:57.257Z,23.23
2022-08-25T01:26:58.966Z,24.35
2022-08-25T01:32:04.650Z,25.88
2022-08-25T01:37:06.520Z,26.90
2022-08-25T01:42:11.593Z,23.95
2022-08-25T01:47:14.155Z,22.60
2022-08-25T01:52:33.417Z,25.50
2022-08-25T01:57:35.064Z,24.70
2022-08-25T02:02:36.775Z,25.00
2022-08-25T02:07:44.203Z,23.83
2022-08-25T02:12:45.867Z,24.35
2022-08-25T02:17:47.545Z,22.85
2022-08-25T02:22:56.615Z,21.75
2022-08-25T02:27:59.823Z,23.58
2022-08-25T02:33:01.762Z,24.23
2022-08-25T02:38:04.920Z,24.98
2022-08-25T02:43:06.662Z,23.67
2022-08-25T02:48:08.366Z,23.60
2022-08-25T02:53:10.042Z,21.13
2022-08-25T02:58:11.759Z,22.45
2022-08-25T03:03:13.674Z,20.90
2022-08-25T03:08:15.898Z,23.23
2022-08-25T03:13:18.184Z,22.13
2022-08-25T03:18:20.286Z,23.05
2022-08-25T03:23:21.967Z,23.65
2022-08-25T03:28:25.026Z,20.83
2022-08-25T03:33:32.236Z,21.95
2022-08-25T03:38:34.307Z,21.80
2022-08-25T03:43:35.959Z,21.38
2022-08-25T03:48:37.693Z,22.80
2022-08-25T03:53:39.453Z,21.77
2022-08-25T03:58:41.177Z,20.63
2022-08-25T04:03:43.781Z,22.63
2022-08-25T04:08:45.822Z,22.13
2022-08-25T04:13:48.479Z,24.67
2022-08-25T04:18:52.559Z,23.75
2022-08-25T04:23:56.417Z,23.83
2022-08-25T04:29:00.116Z,21.65
2022-08-25T04:34:17.693Z,22.73
2022-08-25T04:39:27.650Z,23.25
2022-08-25T04:44:30.897Z,21.23
2022-08-25T04:49:32.724Z,21.95
2022-08-25T04:54:37.197Z,21.90
2022-08-25T04:59:39.481Z,21.92
2022-08-25T05:04:41.598Z,20.10
2022-08-25T05:09:43.320Z,19.83
2022-08-25T05:14:45.097Z,20.85
2022-08-25T05:19:46.744Z,20.02
2022-08-25T05:24:48.377Z,20.58
2022-08-25T05:29:50.060Z,20.25
2022-08-25T05:34:51.706Z,18.23
2022-08-25T05:39:53.477Z,17.02
2022-08-25T05:44:55.574Z,15.80
2022-08-25T05:49:57.371Z,15.85
2022-08-25T05:55:00.710Z,15.77
2022-08-25T06:00:04.653Z,17.10
2022-08-25T06:05:23.059Z,14.90
2022-08-25T06:10:25.276Z,16.80
2022-08-25T06:15:27.219Z,16.80
2022-08-25T06:20:31.182Z,16.67
2022-08-25T06:25:33.921Z,15.40
2022-08-25T06:30:35.794Z,16.83
2022-08-25T06:35:42.040Z,16.83
2022-08-25T06:40:47.730Z,16.85
2022-08-25T06:45:49.365Z,15.68
2022-08-25T06:50:51.090Z,15.63
2022-08-25T06:55:57.873Z,17.25
2022-08-25T07:01:19.685Z,17.30
2022-08-25T07:06:21.523Z,18.73
2022-08-25T07:11:23.548Z,19.77
2022-08-25T07:16:25.739Z,22.58
2022-08-25T07:21:35.703Z,22.65
2022-08-25T07:26:39.897Z,21.80
2022-08-25T07:31:42.005Z,20.40
2022-08-25T07:36:44.253Z,22.05
2022-08-25T07:41:46.333Z,22.58
2022-08-25T07:46:48.693Z,22.25
2022-08-25T07:52:04.159Z,20.58
2022-08-25T07:57:09.041Z,18.55
2022-08-25T08:02:18.399Z,20.45
2022-08-25T08:07:25.837Z,19.17
2022-08-25T08:12:45.897Z,17.90
2022-08-25T08:17:47.659Z,19.23
2022-08-25T08:22:49.840Z,18.80
2022-08-25T08:27:51.585Z,19.00
2022-08-25T08:33:19.642Z,17.80
2022-08-25T08:38:22.105Z,18.55
2022-08-25T08:43:33.212Z,17.05
2022-08-25T08:48:53.966Z,15.20
2022-08-25T08:54:00.796Z,14.60
2022-08-25T08:59:13.094Z,13.25
2022-08-25T09:04:28.118Z,16.48
2022-08-25T09:09:35.611Z,15.15
2022-08-25T09:14:38.573Z,14.45
2022-08-25T09:19:58.487Z,11.77
2022-08-25T09:25:29.394Z,11.77
2022-08-25T09:30:56.937Z,12.07
2022-08-25T09:35:59.241Z,11.25
2022-08-25T09:41:07.849Z,14.30
2022-08-25T09:46:18.074Z,10.82
2022-08-25T09:51:38.209Z,11.57
2022-08-25T09:57:02.180Z,10.65
2022-08-25T10:02:26.058Z,9.50
2022-08-25T10:07:35.446Z,11.48
2022-08-25T10:12:44.049Z,9.30
2022-08-25T10:17:45.916Z,11.20
2022-08-25T10:22:50.745Z,9.27
2022-08-25T10:28:07.581Z,8.60
2022-08-25T10:33:23.188Z,8.32
2022-08-25T10:38:40.098Z,8.88
2022-08-25T10:43:59.376Z,9.38
2022-08-25T10:49:20.139Z,8.40
2022-08-25T10:54:30.458Z,7.90
2022-08-25T10:59:56.080Z,9.13
2022-08-25T11:05:18.397Z,8.00
2022-08-25T11:10:39.433Z,8.57
2022-08-25T11:16:13.744Z,7.43
2022-08-25T11:21:22.123Z,8.10
2022-08-25T11:26:36.662Z,9.45
2022-08-25T11:31:43.565Z,7.75
2022-08-25T11:36:59.902Z,7.72
2022-08-25T11:42:12.491Z,9.73
2022-08-25T11:47:21.454Z,8.65
2022-08-25T11:52:38.234Z,9.32
2022-08-25T11:57:44.751Z,8.85
2022-08-25T12:02:50.649Z,8.80
2022-08-25T12:08:12.201Z,8.02
2022-08-25T12:13:41.265Z,7.10
2022-08-25T12:18:46.213Z,7.78
2022-08-25T12:24:06.018Z,16.70
2022-08-25T12:29:11.840Z,7.05
2022-08-25T12:34:26.687Z,7.25
2022-08-25T12:39:34.093Z,7.43
2022-08-25T12:44:41.923Z,9.07
2022-08-25T12:49:44.122Z,7.93
2022-08-25T12:54:58.202Z,8.75
2022-08-25T13:00:16.763Z,10.25
2022-08-25T13:05:26.355Z,7.78
2022-08-25T13:10:34.177Z,6.78
2022-08-25T13:15:47.030Z,7.50
2022-08-25T13:20:55.918Z,7.95
2022-08-25T13:25:58.561Z,7.80
2022-08-25T13:31:14.138Z,8.50
2022-08-25T13:36:35.905Z,8.35
2022-08-25T13:41:43.661Z,8.05
2022-08-25T13:46:47.211Z,8.23
2022-08-25T13:51:54.442Z,7.18
2022-08-25T13:57:06.829Z,8.15
2022-08-25T14:02:15.077Z,8.30
2022-08-25T14:07:21.301Z,7.95
2022-08-25T14:12:45.512Z,7.25
2022-08-25T14:18:00.663Z,7.88
2022-08-25T14:23:18.713Z,7.03
2022-08-25T14:28:24.006Z,7.72
2022-08-25T14:33:32.772Z,9.13
2022-08-25T14:38:44.151Z,8.45
2022-08-25T14:43:46.097Z,8.55
2022-08-25T14:48:52.217Z,7.75
2022-08-25T14:53:57.440Z,7.95
2022-08-25T14:59:00.052Z,7.97
2022-08-25T15:04:06.424Z,8.20
2022-08-25T15:09:11.692Z,8.20
2022-08-25T15:14:18.368Z,8.35
2022-08-25T15:19:23.536Z,8.80
2022-08-25T15:24:26.755Z,7.85
2022-08-25T15:29:30.959Z,8.65
2022-08-25T15:34:32.842Z,7.93
2022-08-25T15:39:36.674Z,8.68
2022-08-25T15:44:39.529Z,8.75
2022-08-25T15:49:41.182Z,7.60
2022-08-25T15:54:42.858Z,8.55
2022-08-25T15:59:46.834Z,9.27
2022-08-25T16:04:51.558Z,10.63
2022-08-25T16:09:57.207Z,8.13
2022-08-25T16:14:58.972Z,9.07
2022-08-25T16:20:01.147Z,9.57
2022-08-25T16:25:03.078Z,8.90
2022-08-25T16:30:11.777Z,9.75
2022-08-25T16:35:15.515Z,8.93
2022-08-25T16:40:19.016Z,10.10
2022-08-25T16:45:22.105Z,9.55
2022-08-25T16:50:23.856Z,9.43
2022-08-25T16:55:27.082Z,9.68
2022-08-25T17:00:31.934Z,9.75
2022-08-25T17:05:40.636Z,10.98
2022-08-25T17:10:43.496Z,11.00
2022-08-25T17:15:48.923Z,10.70
2022-08-25T17:21:08.281Z,11.48
2022-08-25T17:26:14.686Z,11.18
2022-08-25T17:31:17.221Z,10.85
2022-08-25T17:36:19.270Z,10.50
2022-08-25T17:41:21.132Z,11.10
2022-08-25T17:46:22.947Z,11.35
2022-08-25T17:51:26.145Z,11.15
2022-08-25T17:56:33.478Z,10.30
2022-08-25T18:01:40.569Z,14.02
2022-08-25T18:06:42.784Z,11.82
2022-08-25T18:11:45.027Z,13.05
2022-08-25T18:16:46.750Z,11.82
2022-08-25T18:21:48.505Z,12.73
2022-08-25T18:26:50.191Z,12.10
2022-08-25T18:31:53.656Z,11.32
2022-08-25T18:37:17.700Z,12.15
2022-08-25T18:42:20.161Z,12.88
2022-08-25T18:47:22.948Z,12.18
2022-08-25T18:52:24.596Z,13.10
2022-08-25T18:57:26.688Z,12.10
2022-08-25T19:02:30.871Z,12.73
2022-08-25T19:07:32.668Z,13.90
2022-08-25T19:12:34.541Z,13.95
2022-08-25T19:17:38.767Z,14.48
2022-08-25T19:22:42.073Z,15.48
2022-08-25T19:27:45.051Z,13.70
2022-08-25T19:32:47.810Z,15.50
2022-08-25T19:37:51.905Z,14.68
2022-08-25T19:42:53.965Z,15.98
2022-08-25T19:47:56.433Z,16.08
2022-08-25T19:52:59.940Z,14.52
2022-08-25T19:58:03.484Z,15.57
2022-08-25T20:03:06.241Z,15.88
2022-08-25T20:08:08.394Z,15.85
2022-08-25T20:13:10.292Z,17.38
2022-08-25T20:18:12.314Z,17.00
2022-08-25T20:23:40.124Z,16.95
2022-08-25T20:28:42.321Z,19.13
2022-08-25T20:33:44.102Z,17.02
2022-08-25T20:38:47.566Z,18.80
2022-08-25T20:43:50.119Z,19.85
2022-08-25T20:48:51.841Z,18.55
2022-08-25T20:53:53.816Z,18.10
2022-08-25T20:58:55.548Z,18.58
2022-08-25T21:03:57.376Z,17.77
2022-08-25T21:08:59.146Z,18.10
2022-08-25T21:14:02.291Z,19.77
2022-08-25T21:19:08.829Z,19.52
2022-08-25T21:24:13.141Z,19.70
2022-08-25T21:29:15.175Z,20.45
2022-08-25T21:34:18.941Z,20.80
2022-08-25T21:39:20.613Z,20.27
2022-08-25T21:44:22.304Z,20.30
2022-08-25T21:49:25.086Z,20.90
2022-08-25T21:54:26.997Z,21.85
2022-08-25T21:59:33.653Z,23.95
2022-08-25T22:04:36.020Z,20.88
2022-08-25T22:09:39.135Z,21.77
2022-08-25T22:14:41.028Z,21.73
2022-08-25T22:19:42.876Z,20.95
2022-08-25T22:24:44.518Z,21.65
2022-08-25T22:29:46.634Z,22.50
2022-08-25T22:34:49.109Z,21.90
2022-08-25T22:39:50.849Z,21.63
2022-08-25T22:44:53.964Z,22.48
2022-08-25T22:49:55.913Z,24.55
2022-08-25T22:54:57.684Z,23.58
2022-08-25T22:59:59.438Z,26.35
2022-08-25T23:05:01.747Z,22.77
2022-08-25T23:10:06.021Z,26.17
2022-08-25T23:15:12.396Z,23.60
2022-08-25T23:20:32.645Z,24.35
2022-08-25T23:25:39.597Z,24.00
2022-08-25T23:30:42.722Z,24.95
2022-08-25T23:35:46.497Z,23.42
2022-08-25T23:40:48.148Z,23.77
2022-08-25T23:45:50.121Z,25.63
2022-08-25T23:50:53.956Z,24.23
2022-08-25T23:55:57.435Z,24.75
